sensor_id;sensor_type;location;lat;lon;timestamp;P1;durP1;ratioP1;P2;durP2;ratioP2
47758;SDS011;33520;55.122;35.582;2022-12-07T00:01:19;6.93;;;3.35;;
47758;SDS011;33520;55.122;35.582;2022-12-07T00:03:50;7.53;;;2.80;;
47758;SDS011;33520;55.122;35.582;2022-12-07T00:06:18;4.82;;;2.00;;
47758;SDS011;33520;55.122;35.582;2022-12-07T00:08:45;5.75;;;2.90;;
47758;SDS011;33520;55.122;35.582;2022-12-07T00:11:13;4.85;;;2.47;;
47758;SDS011;33520;55.122;35.582;2022-12-07T00:13:41;5.85;;;3.25;;
47758;SDS011;33520;55.122;35.582;2022-12-07T00:16:12;6.97;;;3.30;;
47758;SDS011;33520;55.122;35.582;2022-12-07T00:18:41;7.03;;;2.45;;
47758;SDS011;33520;55.122;35.582;2022-12-07T00:21:11;6.25;;;3.00;;
47758;SDS011;33520;55.122;35.582;2022-12-07T00:23:39;6.53;;;2.72;;
47758;SDS011;33520;55.122;35.582;2022-12-07T00:26:07;6.53;;;2.53;;
47758;SDS011;33520;55.122;35.582;2022-12-07T00:28:36;5.70;;;2.35;;
47758;SDS011;33520;55.122;35.582;2022-12-07T00:31:10;8.38;;;3.38;;
47758;SDS011;33520;55.122;35.582;2022-12-07T00:33:37;5.43;;;2.72;;
47758;SDS011;33520;55.122;35.582;2022-12-07T00:38:37;4.40;;;1.80;;
47758;SDS011;33520;55.122;35.582;2022-12-07T00:41:05;7.50;;;2.70;;
47758;SDS011;33520;55.122;35.582;2022-12-07T00:43:33;5.88;;;2.75;;
47758;SDS011;33520;55.122;35.582;2022-12-07T00:45:59;6.82;;;2.83;;
47758;SDS011;33520;55.122;35.582;2022-12-07T00:48:26;4.85;;;2.33;;
47758;SDS011;33520;55.122;35.582;2022-12-07T00:50:52;9.30;;;3.65;;
47758;SDS011;33520;55.122;35.582;2022-12-07T00:53:18;6.85;;;3.05;;
47758;SDS011;33520;55.122;35.582;2022-12-07T00:55:45;6.88;;;3.33;;
47758;SDS011;33520;55.122;35.582;2022-12-07T00:58:11;5.63;;;2.30;;
47758;SDS011;33520;55.122;35.582;2022-12-07T01:03:05;5.60;;;1.98;;
47758;SDS011;33520;55.122;35.582;2022-12-07T01:05:32;9.10;;;3.38;;
47758;SDS011;33520;55.122;35.582;2022-12-07T01:07:58;6.30;;;3.15;;
47758;SDS011;33520;55.122;35.582;2022-12-07T01:10:26;9.32;;;2.65;;
47758;SDS011;33520;55.122;35.582;2022-12-07T01:12:52;6.95;;;2.90;;
47758;SDS011;33520;55.122;35.582;2022-12-07T01:15:18;5.38;;;2.67;;
47758;SDS011;33520;55.122;35.582;2022-12-07T01:17:45;8.98;;;3.78;;
47758;SDS011;33520;55.122;35.582;2022-12-07T01:20:11;7.57;;;3.97;;
47758;SDS011;33520;55.122;35.582;2022-12-07T01:22:38;10.45;;;3.17;;
47758;SDS011;33520;55.122;35.582;2022-12-07T01:25:06;6.95;;;2.58;;
47758;SDS011;33520;55.122;35.582;2022-12-07T01:27:33;4.82;;;2.78;;
47758;SDS011;33520;55.122;35.582;2022-12-07T01:32:26;4.13;;;2.40;;
47758;SDS011;33520;55.122;35.582;2022-12-07T01:34:52;7.90;;;3.05;;
47758;SDS011;33520;55.122;35.582;2022-12-07T01:37:19;5.88;;;2.50;;
47758;SDS011;33520;55.122;35.582;2022-12-07T01:39:48;7.00;;;2.90;;
47758;SDS011;33520;55.122;35.582;2022-12-07T01:42:14;8.73;;;3.42;;
47758;SDS011;33520;55.122;35.582;2022-12-07T01:47:48;6.72;;;2.53;;
47758;SDS011;33520;55.122;35.582;2022-12-07T01:50:18;6.55;;;3.10;;
47758;SDS011;33520;55.122;35.582;2022-12-07T01:52:46;5.90;;;3.08;;
47758;SDS011;33520;55.122;35.582;2022-12-07T01:55:15;9.25;;;3.60;;
47758;SDS011;33520;55.122;35.582;2022-12-07T01:57:45;8.07;;;3.55;;
47758;SDS011;33520;55.122;35.582;2022-12-07T02:00:13;5.43;;;2.38;;
47758;SDS011;33520;55.122;35.582;2022-12-07T02:05:09;6.35;;;2.97;;
47758;SDS011;33520;55.122;35.582;2022-12-07T02:07:36;5.30;;;2.60;;
47758;SDS011;33520;55.122;35.582;2022-12-07T02:10:20;7.32;;;2.67;;
47758;SDS011;33520;55.122;35.582;2022-12-07T02:12:49;9.77;;;2.85;;
47758;SDS011;33520;55.122;35.582;2022-12-07T02:15:20;4.72;;;2.40;;
47758;SDS011;33520;55.122;35.582;2022-12-07T02:18:00;5.70;;;2.47;;
47758;SDS011;33520;55.122;35.582;2022-12-07T02:23:22;3.07;;;1.93;;
47758;SDS011;33520;55.122;35.582;2022-12-07T02:26:42;5.35;;;2.65;;
47758;SDS011;33520;55.122;35.582;2022-12-07T02:34:59;6.53;;;3.35;;
47758;SDS011;33520;55.122;35.582;2022-12-07T02:40:22;6.60;;;2.58;;
47758;SDS011;33520;55.122;35.582;2022-12-07T02:42:55;5.95;;;2.47;;
47758;SDS011;33520;55.122;35.582;2022-12-07T02:45:25;5.38;;;2.10;;
47758;SDS011;33520;55.122;35.582;2022-12-07T02:47:52;8.10;;;2.50;;
47758;SDS011;33520;55.122;35.582;2022-12-07T02:50:20;5.82;;;2.95;;
47758;SDS011;33520;55.122;35.582;2022-12-07T02:52:46;6.80;;;2.92;;
47758;SDS011;33520;55.122;35.582;2022-12-07T02:55:12;5.47;;;2.78;;
47758;SDS011;33520;55.122;35.582;2022-12-07T02:57:48;6.78;;;2.10;;
47758;SDS011;33520;55.122;35.582;2022-12-07T03:01:27;6.25;;;2.92;;
47758;SDS011;33520;55.122;35.582;2022-12-07T03:03:35;8.95;;;2.88;;
47758;SDS011;33520;55.122;35.582;2022-12-07T03:06:08;5.60;;;2.33;;
47758;SDS011;33520;55.122;35.582;2022-12-07T03:11:25;6.53;;;3.00;;
47758;SDS011;33520;55.122;35.582;2022-12-07T03:14:14;7.20;;;2.80;;
47758;SDS011;33520;55.122;35.582;2022-12-07T03:16:52;9.85;;;3.38;;
47758;SDS011;33520;55.122;35.582;2022-12-07T03:19:22;6.53;;;2.63;;
47758;SDS011;33520;55.122;35.582;2022-12-07T03:22:12;6.55;;;2.75;;
47758;SDS011;33520;55.122;35.582;2022-12-07T03:24:49;6.78;;;2.53;;
47758;SDS011;33520;55.122;35.582;2022-12-07T03:27:19;5.95;;;2.38;;
47758;SDS011;33520;55.122;35.582;2022-12-07T03:32:23;8.07;;;2.67;;
47758;SDS011;33520;55.122;35.582;2022-12-07T03:35:00;5.32;;;2.30;;
47758;SDS011;33520;55.122;35.582;2022-12-07T03:37:32;6.18;;;2.83;;
47758;SDS011;33520;55.122;35.582;2022-12-07T03:43:09;6.75;;;2.53;;
47758;SDS011;33520;55.122;35.582;2022-12-07T03:45:39;7.45;;;3.30;;
47758;SDS011;33520;55.122;35.582;2022-12-07T03:48:20;4.85;;;2.60;;
47758;SDS011;33520;55.122;35.582;2022-12-07T03:51:11;7.13;;;2.25;;
47758;SDS011;33520;55.122;35.582;2022-12-07T03:53:45;8.73;;;3.03;;
47758;SDS011;33520;55.122;35.582;2022-12-07T03:56:14;8.27;;;2.65;;
47758;SDS011;33520;55.122;35.582;2022-12-07T03:58:41;5.50;;;2.58;;
47758;SDS011;33520;55.122;35.582;2022-12-07T04:01:08;9.68;;;3.05;;
47758;SDS011;33520;55.122;35.582;2022-12-07T04:03:34;6.22;;;2.60;;
47758;SDS011;33520;55.122;35.582;2022-12-07T04:06:01;6.22;;;2.45;;
47758;SDS011;33520;55.122;35.582;2022-12-07T04:08:27;6.85;;;2.63;;
47758;SDS011;33520;55.122;35.582;2022-12-07T04:10:53;8.07;;;3.15;;
47758;SDS011;33520;55.122;35.582;2022-12-07T04:13:20;4.57;;;2.33;;
47758;SDS011;33520;55.122;35.582;2022-12-07T04:15:46;7.30;;;2.65;;
47758;SDS011;33520;55.122;35.582;2022-12-07T04:18:12;6.45;;;2.67;;
47758;SDS011;33520;55.122;35.582;2022-12-07T04:20:39;6.53;;;2.90;;
47758;SDS011;33520;55.122;35.582;2022-12-07T04:23:05;5.93;;;2.45;;
47758;SDS011;33520;55.122;35.582;2022-12-07T04:25:31;4.63;;;3.30;;
47758;SDS011;33520;55.122;35.582;2022-12-07T04:27:58;5.43;;;2.72;;
47758;SDS011;33520;55.122;35.582;2022-12-07T04:30:24;6.00;;;2.58;;
47758;SDS011;33520;55.122;35.582;2022-12-07T04:32:50;7.57;;;2.58;;
47758;SDS011;33520;55.122;35.582;2022-12-07T04:35:16;5.80;;;2.53;;
47758;SDS011;33520;55.122;35.582;2022-12-07T04:37:43;7.72;;;2.95;;
47758;SDS011;33520;55.122;35.582;2022-12-07T04:40:09;4.22;;;2.67;;
47758;SDS011;33520;55.122;35.582;2022-12-07T04:42:37;5.75;;;2.55;;
47758;SDS011;33520;55.122;35.582;2022-12-07T04:45:04;11.73;;;2.90;;
47758;SDS011;33520;55.122;35.582;2022-12-07T04:47:30;5.93;;;3.22;;
47758;SDS011;33520;55.122;35.582;2022-12-07T04:49:57;5.93;;;2.47;;
47758;SDS011;33520;55.122;35.582;2022-12-07T04:52:23;7.85;;;2.78;;
47758;SDS011;33520;55.122;35.582;2022-12-07T04:54:49;9.80;;;2.50;;
47758;SDS011;33520;55.122;35.582;2022-12-07T04:57:16;8.23;;;2.92;;
47758;SDS011;33520;55.122;35.582;2022-12-07T04:59:42;7.07;;;3.22;;
47758;SDS011;33520;55.122;35.582;2022-12-07T05:02:09;5.72;;;2.33;;
47758;SDS011;33520;55.122;35.582;2022-12-07T05:04:35;4.70;;;2.60;;
47758;SDS011;33520;55.122;35.582;2022-12-07T05:07:02;8.75;;;2.63;;
47758;SDS011;33520;55.122;35.582;2022-12-07T05:09:28;6.15;;;2.80;;
47758;SDS011;33520;55.122;35.582;2022-12-07T05:11:55;5.72;;;2.20;;
47758;SDS011;33520;55.122;35.582;2022-12-07T05:14:21;9.23;;;2.30;;
47758;SDS011;33520;55.122;35.582;2022-12-07T05:16:48;6.00;;;2.13;;
47758;SDS011;33520;55.122;35.582;2022-12-07T05:19:16;3.97;;;2.13;;
47758;SDS011;33520;55.122;35.582;2022-12-07T05:21:43;6.82;;;2.42;;
47758;SDS011;33520;55.122;35.582;2022-12-07T05:24:10;4.45;;;2.72;;
47758;SDS011;33520;55.122;35.582;2022-12-07T05:26:39;5.10;;;3.05;;
47758;SDS011;33520;55.122;35.582;2022-12-07T05:29:05;6.80;;;2.92;;
47758;SDS011;33520;55.122;35.582;2022-12-07T05:31:31;5.88;;;3.00;;
47758;SDS011;33520;55.122;35.582;2022-12-07T05:36:24;3.03;;;2.13;;
47758;SDS011;33520;55.122;35.582;2022-12-07T05:41:17;5.03;;;2.42;;
47758;SDS011;33520;55.122;35.582;2022-12-07T05:44:04;5.35;;;2.30;;
47758;SDS011;33520;55.122;35.582;2022-12-07T05:46:31;6.32;;;2.65;;
47758;SDS011;33520;55.122;35.582;2022-12-07T05:48:57;5.80;;;2.92;;
47758;SDS011;33520;55.122;35.582;2022-12-07T05:51:23;12.40;;;3.72;;
47758;SDS011;33520;55.122;35.582;2022-12-07T05:53:49;6.60;;;3.28;;
47758;SDS011;33520;55.122;35.582;2022-12-07T05:56:15;8.35;;;2.88;;
47758;SDS011;33520;55.122;35.582;2022-12-07T05:58:42;8.13;;;3.25;;
47758;SDS011;33520;55.122;35.582;2022-12-07T06:01:26;7.88;;;3.90;;
47758;SDS011;33520;55.122;35.582;2022-12-07T06:03:53;6.80;;;3.08;;
47758;SDS011;33520;55.122;35.582;2022-12-07T06:06:19;6.10;;;2.50;;
47758;SDS011;33520;55.122;35.582;2022-12-07T06:08:45;5.90;;;2.63;;
47758;SDS011;33520;55.122;35.582;2022-12-07T06:11:12;4.30;;;2.35;;
47758;SDS011;33520;55.122;35.582;2022-12-07T06:13:56;5.28;;;2.75;;
47758;SDS011;33520;55.122;35.582;2022-12-07T06:18:49;7.97;;;2.67;;
47758;SDS011;33520;55.122;35.582;2022-12-07T06:21:15;8.75;;;3.50;;
47758;SDS011;33520;55.122;35.582;2022-12-07T06:23:41;5.97;;;3.20;;
47758;SDS011;33520;55.122;35.582;2022-12-07T06:26:07;5.00;;;2.67;;
47758;SDS011;33520;55.122;35.582;2022-12-07T06:28:33;8.13;;;3.17;;
47758;SDS011;33520;55.122;35.582;2022-12-07T06:31:00;6.65;;;3.65;;
47758;SDS011;33520;55.122;35.582;2022-12-07T06:33:27;6.95;;;3.33;;
47758;SDS011;33520;55.122;35.582;2022-12-07T06:35:55;5.93;;;3.08;;
47758;SDS011;33520;55.122;35.582;2022-12-07T06:38:21;7.85;;;2.95;;
47758;SDS011;33520;55.122;35.582;2022-12-07T06:40:48;7.07;;;2.63;;
47758;SDS011;33520;55.122;35.582;2022-12-07T06:43:14;6.30;;;3.10;;
47758;SDS011;33520;55.122;35.582;2022-12-07T06:45:41;7.30;;;2.95;;
47758;SDS011;33520;55.122;35.582;2022-12-07T06:48:07;6.47;;;2.78;;
47758;SDS011;33520;55.122;35.582;2022-12-07T06:50:34;7.47;;;3.05;;
47758;SDS011;33520;55.122;35.582;2022-12-07T06:53:00;5.85;;;2.38;;
47758;SDS011;33520;55.122;35.582;2022-12-07T06:55:26;4.43;;;2.70;;
47758;SDS011;33520;55.122;35.582;2022-12-07T06:57:53;4.57;;;2.40;;
47758;SDS011;33520;55.122;35.582;2022-12-07T07:00:20;9.43;;;3.05;;
47758;SDS011;33520;55.122;35.582;2022-12-07T07:05:13;4.97;;;2.42;;
47758;SDS011;33520;55.122;35.582;2022-12-07T07:07:39;3.72;;;2.22;;
47758;SDS011;33520;55.122;35.582;2022-12-07T07:10:06;7.72;;;2.47;;
47758;SDS011;33520;55.122;35.582;2022-12-07T07:12:32;6.10;;;3.05;;
47758;SDS011;33520;55.122;35.582;2022-12-07T07:14:59;6.40;;;2.78;;
47758;SDS011;33520;55.122;35.582;2022-12-07T07:17:25;8.85;;;3.03;;
47758;SDS011;33520;55.122;35.582;2022-12-07T07:19:52;7.72;;;3.17;;
47758;SDS011;33520;55.122;35.582;2022-12-07T07:22:18;7.63;;;3.58;;
47758;SDS011;33520;55.122;35.582;2022-12-07T07:27:11;5.35;;;2.38;;
47758;SDS011;33520;55.122;35.582;2022-12-07T07:29:37;4.80;;;2.70;;
47758;SDS011;33520;55.122;35.582;2022-12-07T07:32:03;5.80;;;2.28;;
47758;SDS011;33520;55.122;35.582;2022-12-07T07:36:56;4.90;;;2.67;;
47758;SDS011;33520;55.122;35.582;2022-12-07T07:41:49;4.90;;;2.70;;
47758;SDS011;33520;55.122;35.582;2022-12-07T07:44:23;5.13;;;2.35;;
47758;SDS011;33520;55.122;35.582;2022-12-07T07:46:50;7.00;;;3.10;;
47758;SDS011;33520;55.122;35.582;2022-12-07T07:51:42;5.97;;;3.53;;
47758;SDS011;33520;55.122;35.582;2022-12-07T07:54:08;4.40;;;2.60;;
47758;SDS011;33520;55.122;35.582;2022-12-07T07:56:35;8.98;;;3.33;;
47758;SDS011;33520;55.122;35.582;2022-12-07T09:12:45;10.35;;;3.97;;
47758;SDS011;33520;55.122;35.582;2022-12-07T09:15:12;7.90;;;2.50;;
47758;SDS011;33520;55.122;35.582;2022-12-07T09:17:38;6.65;;;3.50;;
47758;SDS011;33520;55.122;35.582;2022-12-07T09:20:05;6.30;;;3.60;;
47758;SDS011;33520;55.122;35.582;2022-12-07T09:22:32;9.30;;;4.10;;
47758;SDS011;33520;55.122;35.582;2022-12-07T09:24:59;12.02;;;4.63;;
47758;SDS011;33520;55.122;35.582;2022-12-07T09:27:26;7.65;;;4.13;;
47758;SDS011;33520;55.122;35.582;2022-12-07T09:32:19;6.82;;;3.53;;
47758;SDS011;33520;55.122;35.582;2022-12-07T09:37:12;8.02;;;3.67;;
47758;SDS011;33520;55.122;35.582;2022-12-07T09:39:38;7.75;;;4.38;;
47758;SDS011;33520;55.122;35.582;2022-12-07T09:42:05;8.68;;;4.10;;
47758;SDS011;33520;55.122;35.582;2022-12-07T09:44:33;8.93;;;4.20;;
47758;SDS011;33520;55.122;35.582;2022-12-07T09:47:00;7.25;;;4.15;;
47758;SDS011;33520;55.122;35.582;2022-12-07T09:52:01;13.18;;;4.28;;
47758;SDS011;33520;55.122;35.582;2022-12-07T09:54:35;13.73;;;5.35;;
47758;SDS011;33520;55.122;35.582;2022-12-07T09:57:02;9.32;;;4.20;;
47758;SDS011;33520;55.122;35.582;2022-12-07T09:59:29;9.63;;;4.05;;
47758;SDS011;33520;55.122;35.582;2022-12-07T10:01:55;6.10;;;3.15;;
47758;SDS011;33520;55.122;35.582;2022-12-07T10:04:22;9.77;;;4.05;;
47758;SDS011;33520;55.122;35.582;2022-12-07T10:06:50;10.85;;;4.68;;
47758;SDS011;33520;55.122;35.582;2022-12-07T10:09:18;11.63;;;5.00;;
47758;SDS011;33520;55.122;35.582;2022-12-07T10:14:32;9.07;;;4.00;;
47758;SDS011;33520;55.122;35.582;2022-12-07T10:17:00;11.57;;;4.38;;
47758;SDS011;33520;55.122;35.582;2022-12-07T10:22:30;9.68;;;5.32;;
47758;SDS011;33520;55.122;35.582;2022-12-07T10:24:49;9.50;;;4.82;;
47758;SDS011;33520;55.122;35.582;2022-12-07T10:27:17;10.10;;;4.88;;
47758;SDS011;33520;55.122;35.582;2022-12-07T10:29:49;9.10;;;4.43;;
47758;SDS011;33520;55.122;35.582;2022-12-07T10:34:43;10.63;;;4.32;;
47758;SDS011;33520;55.122;35.582;2022-12-07T10:39:44;6.32;;;3.53;;
47758;SDS011;33520;55.122;35.582;2022-12-07T10:42:20;7.68;;;4.28;;
47758;SDS011;33520;55.122;35.582;2022-12-07T10:44:48;8.35;;;4.25;;
47758;SDS011;33520;55.122;35.582;2022-12-07T10:58:40;9.25;;;4.18;;
47758;SDS011;33520;55.122;35.582;2022-12-07T11:01:42;9.15;;;4.30;;
47758;SDS011;33520;55.122;35.582;2022-12-07T11:16:34;11.23;;;4.25;;
47758;SDS011;33520;55.122;35.582;2022-12-07T11:20:29;6.05;;;3.20;;
47758;SDS011;33520;55.122;35.582;2022-12-07T11:22:33;8.10;;;4.10;;
47758;SDS011;33520;55.122;35.582;2022-12-07T11:33:57;7.32;;;3.65;;
47758;SDS011;33520;55.122;35.582;2022-12-07T11:36:37;6.32;;;3.45;;
47758;SDS011;33520;55.122;35.582;2022-12-07T11:39:11;9.60;;;3.63;;
47758;SDS011;33520;55.122;35.582;2022-12-07T11:41:47;8.05;;;3.50;;
47758;SDS011;33520;55.122;35.582;2022-12-07T11:45:00;7.70;;;3.78;;
47758;SDS011;33520;55.122;35.582;2022-12-07T11:47:45;8.80;;;3.50;;
47758;SDS011;33520;55.122;35.582;2022-12-07T12:15:31;8.50;;;4.05;;
47758;SDS011;33520;55.122;35.582;2022-12-07T12:20:46;6.68;;;3.58;;
47758;SDS011;33520;55.122;35.582;2022-12-07T12:23:48;9.82;;;3.38;;
47758;SDS011;33520;55.122;35.582;2022-12-07T12:26:18;9.80;;;3.72;;
47758;SDS011;33520;55.122;35.582;2022-12-07T12:28:56;7.88;;;3.53;;
47758;SDS011;33520;55.122;35.582;2022-12-07T12:33:55;9.23;;;3.95;;
47758;SDS011;33520;55.122;35.582;2022-12-07T12:45:02;8.25;;;4.35;;
47758;SDS011;33520;55.122;35.582;2022-12-07T12:47:43;8.82;;;3.80;;
47758;SDS011;33520;55.122;35.582;2022-12-07T12:53:14;10.18;;;3.95;;
47758;SDS011;33520;55.122;35.582;2022-12-07T13:08:13;8.18;;;4.00;;
47758;SDS011;33520;55.122;35.582;2022-12-07T13:10:45;9.05;;;4.43;;
47758;SDS011;33520;55.122;35.582;2022-12-07T13:26:16;9.95;;;4.55;;
47758;SDS011;33520;55.122;35.582;2022-12-07T13:28:50;10.82;;;5.03;;
47758;SDS011;33520;55.122;35.582;2022-12-07T13:49:32;10.15;;;4.80;;
47758;SDS011;33520;55.122;35.582;2022-12-07T13:52:12;9.70;;;4.72;;
47758;SDS011;33520;55.122;35.582;2022-12-07T13:55:29;12.18;;;4.63;;
47758;SDS011;33520;55.122;35.582;2022-12-07T13:57:31;8.50;;;3.60;;
47758;SDS011;33520;55.122;35.582;2022-12-07T14:00:01;9.50;;;4.57;;
47758;SDS011;33520;55.122;35.582;2022-12-07T14:02:31;11.70;;;5.40;;
47758;SDS011;33520;55.122;35.582;2022-12-07T14:05:15;12.20;;;5.35;;
47758;SDS011;33520;55.122;35.582;2022-12-07T14:07:49;8.02;;;5.13;;
47758;SDS011;33520;55.122;35.582;2022-12-07T14:10:25;10.65;;;4.70;;
47758;SDS011;33520;55.122;35.582;2022-12-07T14:12:55;14.30;;;5.25;;
47758;SDS011;33520;55.122;35.582;2022-12-07T14:15:23;9.25;;;4.60;;
47758;SDS011;33520;55.122;35.582;2022-12-07T14:17:52;12.93;;;5.30;;
47758;SDS011;33520;55.122;35.582;2022-12-07T14:20:41;10.10;;;4.28;;
47758;SDS011;33520;55.122;35.582;2022-12-07T14:23:21;15.98;;;5.68;;
47758;SDS011;33520;55.122;35.582;2022-12-07T14:25:51;13.10;;;5.28;;
47758;SDS011;33520;55.122;35.582;2022-12-07T14:28:31;10.40;;;4.90;;
47758;SDS011;33520;55.122;35.582;2022-12-07T14:30:58;13.45;;;6.18;;
47758;SDS011;33520;55.122;35.582;2022-12-07T14:33:26;14.25;;;5.65;;
47758;SDS011;33520;55.122;35.582;2022-12-07T14:35:52;14.60;;;5.60;;
47758;SDS011;33520;55.122;35.582;2022-12-07T14:38:21;10.98;;;5.95;;
47758;SDS011;33520;55.122;35.582;2022-12-07T14:40:47;10.70;;;5.55;;
47758;SDS011;33520;55.122;35.582;2022-12-07T14:43:15;12.20;;;5.20;;
47758;SDS011;33520;55.122;35.582;2022-12-07T14:45:42;8.98;;;4.35;;
47758;SDS011;33520;55.122;35.582;2022-12-07T14:50:40;10.93;;;5.22;;
47758;SDS011;33520;55.122;35.582;2022-12-07T14:53:12;8.50;;;4.03;;
47758;SDS011;33520;55.122;35.582;2022-12-07T14:55:40;13.43;;;6.10;;
47758;SDS011;33520;55.122;35.582;2022-12-07T14:58:17;11.90;;;5.55;;
47758;SDS011;33520;55.122;35.582;2022-12-07T15:00:44;12.18;;;5.70;;
47758;SDS011;33520;55.122;35.582;2022-12-07T15:03:10;13.38;;;6.07;;
47758;SDS011;33520;55.122;35.582;2022-12-07T15:05:38;10.50;;;5.10;;
47758;SDS011;33520;55.122;35.582;2022-12-07T15:08:05;13.85;;;6.05;;
47758;SDS011;33520;55.122;35.582;2022-12-07T15:12:59;15.60;;;5.95;;
47758;SDS011;33520;55.122;35.582;2022-12-07T15:15:50;15.10;;;5.55;;
47758;SDS011;33520;55.122;35.582;2022-12-07T15:18:18;13.20;;;5.53;;
47758;SDS011;33520;55.122;35.582;2022-12-07T15:20:46;11.55;;;5.45;;
47758;SDS011;33520;55.122;35.582;2022-12-07T15:23:12;14.80;;;6.38;;
47758;SDS011;33520;55.122;35.582;2022-12-07T15:25:43;11.25;;;5.38;;
47758;SDS011;33520;55.122;35.582;2022-12-07T15:28:10;11.68;;;5.03;;
47758;SDS011;33520;55.122;35.582;2022-12-07T15:30:38;11.75;;;6.45;;
47758;SDS011;33520;55.122;35.582;2022-12-07T15:33:05;13.50;;;5.75;;
47758;SDS011;33520;55.122;35.582;2022-12-07T15:35:31;11.50;;;4.80;;
47758;SDS011;33520;55.122;35.582;2022-12-07T15:37:58;9.50;;;5.07;;
47758;SDS011;33520;55.122;35.582;2022-12-07T15:40:24;12.40;;;5.63;;
47758;SDS011;33520;55.122;35.582;2022-12-07T15:42:51;10.68;;;5.07;;
47758;SDS011;33520;55.122;35.582;2022-12-07T15:45:18;14.10;;;5.93;;
47758;SDS011;33520;55.122;35.582;2022-12-07T15:47:44;12.43;;;5.22;;
47758;SDS011;33520;55.122;35.582;2022-12-07T15:50:12;9.27;;;4.55;;
47758;SDS011;33520;55.122;35.582;2022-12-07T15:52:40;13.68;;;5.85;;
47758;SDS011;33520;55.122;35.582;2022-12-07T15:55:06;13.75;;;5.80;;
47758;SDS011;33520;55.122;35.582;2022-12-07T15:57:34;15.38;;;6.03;;
47758;SDS011;33520;55.122;35.582;2022-12-07T16:00:06;12.90;;;5.50;;
47758;SDS011;33520;55.122;35.582;2022-12-07T16:02:35;12.55;;;5.43;;
47758;SDS011;33520;55.122;35.582;2022-12-07T16:05:02;12.85;;;5.43;;
47758;SDS011;33520;55.122;35.582;2022-12-07T16:07:29;10.10;;;4.90;;
47758;SDS011;33520;55.122;35.582;2022-12-07T16:09:55;9.48;;;4.22;;
47758;SDS011;33520;55.122;35.582;2022-12-07T16:12:21;12.30;;;4.45;;
47758;SDS011;33520;55.122;35.582;2022-12-07T16:14:48;11.60;;;4.95;;
47758;SDS011;33520;55.122;35.582;2022-12-07T16:17:14;14.95;;;6.05;;
47758;SDS011;33520;55.122;35.582;2022-12-07T16:19:40;9.02;;;3.58;;
47758;SDS011;33520;55.122;35.582;2022-12-07T16:22:07;10.00;;;4.28;;
47758;SDS011;33520;55.122;35.582;2022-12-07T16:24:33;14.90;;;6.05;;
47758;SDS011;33520;55.122;35.582;2022-12-07T16:27:00;12.07;;;5.55;;
47758;SDS011;33520;55.122;35.582;2022-12-07T16:29:26;10.55;;;4.55;;
47758;SDS011;33520;55.122;35.582;2022-12-07T16:31:53;12.27;;;5.55;;
47758;SDS011;33520;55.122;35.582;2022-12-07T16:36:46;8.82;;;4.32;;
47758;SDS011;33520;55.122;35.582;2022-12-07T16:39:12;7.82;;;3.80;;
47758;SDS011;33520;55.122;35.582;2022-12-07T16:41:38;10.00;;;5.35;;
47758;SDS011;33520;55.122;35.582;2022-12-07T16:44:06;15.80;;;4.90;;
47758;SDS011;33520;55.122;35.582;2022-12-07T16:46:33;11.15;;;4.95;;
47758;SDS011;33520;55.122;35.582;2022-12-07T16:49:01;9.45;;;5.05;;
47758;SDS011;33520;55.122;35.582;2022-12-07T16:51:28;7.57;;;3.58;;
47758;SDS011;33520;55.122;35.582;2022-12-07T16:53:55;10.68;;;5.15;;
47758;SDS011;33520;55.122;35.582;2022-12-07T16:58:48;9.20;;;4.82;;
47758;SDS011;33520;55.122;35.582;2022-12-07T17:01:16;6.35;;;3.83;;
47758;SDS011;33520;55.122;35.582;2022-12-07T17:03:43;18.15;;;4.97;;
47758;SDS011;33520;55.122;35.582;2022-12-07T17:06:20;16.60;;;5.45;;
47758;SDS011;33520;55.122;35.582;2022-12-07T17:08:48;9.85;;;4.38;;
47758;SDS011;33520;55.122;35.582;2022-12-07T17:11:16;10.60;;;3.97;;
47758;SDS011;33520;55.122;35.582;2022-12-07T17:13:44;11.52;;;5.95;;
47758;SDS011;33520;55.122;35.582;2022-12-07T17:16:29;11.98;;;5.10;;
47758;SDS011;33520;55.122;35.582;2022-12-07T17:18:56;9.40;;;4.45;;
47758;SDS011;33520;55.122;35.582;2022-12-07T17:21:22;11.45;;;5.35;;
47758;SDS011;33520;55.122;35.582;2022-12-07T17:23:49;10.07;;;3.42;;
47758;SDS011;33520;55.122;35.582;2022-12-07T17:26:21;10.52;;;4.07;;
47758;SDS011;33520;55.122;35.582;2022-12-07T17:28:49;10.60;;;5.32;;
47758;SDS011;33520;55.122;35.582;2022-12-07T17:33:42;10.55;;;5.25;;
47758;SDS011;33520;55.122;35.582;2022-12-07T17:36:12;10.95;;;4.85;;
47758;SDS011;33520;55.122;35.582;2022-12-07T17:38:50;9.07;;;4.28;;
47758;SDS011;33520;55.122;35.582;2022-12-07T17:41:18;10.40;;;4.88;;
47758;SDS011;33520;55.122;35.582;2022-12-07T17:44:11;12.60;;;3.97;;
47758;SDS011;33520;55.122;35.582;2022-12-07T17:46:42;13.80;;;5.57;;
47758;SDS011;33520;55.122;35.582;2022-12-07T17:49:09;9.77;;;3.88;;
47758;SDS011;33520;55.122;35.582;2022-12-07T17:51:36;8.30;;;4.00;;
47758;SDS011;33520;55.122;35.582;2022-12-07T17:54:20;9.68;;;4.47;;
47758;SDS011;33520;55.122;35.582;2022-12-07T17:56:47;10.93;;;4.75;;
47758;SDS011;33520;55.122;35.582;2022-12-07T17:59:13;6.75;;;4.07;;
47758;SDS011;33520;55.122;35.582;2022-12-07T18:01:40;8.50;;;4.03;;
47758;SDS011;33520;55.122;35.582;2022-12-07T18:04:07;10.20;;;4.45;;
47758;SDS011;33520;55.122;35.582;2022-12-07T18:06:33;9.27;;;4.25;;
47758;SDS011;33520;55.122;35.582;2022-12-07T18:09:00;9.88;;;3.80;;
47758;SDS011;33520;55.122;35.582;2022-12-07T18:11:27;8.88;;;5.00;;
47758;SDS011;33520;55.122;35.582;2022-12-07T18:13:54;10.63;;;4.53;;
47758;SDS011;33520;55.122;35.582;2022-12-07T18:16:21;8.18;;;4.13;;
47758;SDS011;33520;55.122;35.582;2022-12-07T18:18:49;7.28;;;3.50;;
47758;SDS011;33520;55.122;35.582;2022-12-07T18:21:20;14.35;;;4.78;;
47758;SDS011;33520;55.122;35.582;2022-12-07T18:23:48;9.48;;;4.72;;
47758;SDS011;33520;55.122;35.582;2022-12-07T18:26:18;8.27;;;3.65;;
47758;SDS011;33520;55.122;35.582;2022-12-07T18:28:46;10.05;;;4.70;;
47758;SDS011;33520;55.122;35.582;2022-12-07T18:31:12;13.25;;;5.00;;
47758;SDS011;33520;55.122;35.582;2022-12-07T18:33:39;11.30;;;4.65;;
47758;SDS011;33520;55.122;35.582;2022-12-07T18:36:06;10.75;;;4.65;;
47758;SDS011;33520;55.122;35.582;2022-12-07T18:38:33;7.57;;;4.18;;
47758;SDS011;33520;55.122;35.582;2022-12-07T18:41:01;11.52;;;4.60;;
47758;SDS011;33520;55.122;35.582;2022-12-07T18:43:28;15.38;;;4.82;;
47758;SDS011;33520;55.122;35.582;2022-12-07T18:45:54;9.18;;;3.78;;
47758;SDS011;33520;55.122;35.582;2022-12-07T18:48:20;8.88;;;4.50;;
47758;SDS011;33520;55.122;35.582;2022-12-07T18:50:57;11.98;;;4.88;;
47758;SDS011;33520;55.122;35.582;2022-12-07T18:53:27;9.77;;;4.78;;
47758;SDS011;33520;55.122;35.582;2022-12-07T18:58:53;8.70;;;4.20;;
47758;SDS011;33520;55.122;35.582;2022-12-07T19:01:40;8.15;;;4.07;;
47758;SDS011;33520;55.122;35.582;2022-12-07T19:04:07;11.35;;;4.88;;
47758;SDS011;33520;55.122;35.582;2022-12-07T19:06:33;10.80;;;4.63;;
47758;SDS011;33520;55.122;35.582;2022-12-07T19:09:00;12.60;;;5.20;;
47758;SDS011;33520;55.122;35.582;2022-12-07T19:11:29;9.43;;;3.95;;
47758;SDS011;33520;55.122;35.582;2022-12-07T19:14:16;10.20;;;5.07;;
47758;SDS011;33520;55.122;35.582;2022-12-07T19:16:48;10.07;;;3.50;;
47758;SDS011;33520;55.122;35.582;2022-12-07T19:19:17;8.27;;;4.18;;
47758;SDS011;33520;55.122;35.582;2022-12-07T19:21:44;8.00;;;3.67;;
47758;SDS011;33520;55.122;35.582;2022-12-07T19:24:11;9.55;;;3.88;;